• Join FlightAware (Why Join?)
  • Login
  • US Flag 
02:17AM EDT


 

Airport Tracker/Info


-or-


 

Live Flight TrackerFlight Track Log ✈ GJS3649 ✈ 02-May-2013 ✈ KBDL - KIAD

Flight Track Log - Related Links

Times and Time Zones

All times are in EDT time to prevent confusion due to time zone crossing. See the GJS3649 flight status page for this flight to view local times or setup timezone preferences in your user account.

Time Position Orientation Groundspeed Altitude Reporting Facility
EDT Latitude Longitude Course Direction KTS MPH feet Rate Location/Type
07:49PM 41.9208 -72.6717 242° Southwest 152 175 1,100  Level Boston Center
07:50PM 41.8875 -72.7050 217° Southwest 206 237 2,700 2,160 Climbing Boston Center
07:51PM 41.8914 -72.7942 273° West 267 307 5,100 2,760 Climbing Boston Center
07:52PM 41.8931 -72.8975 271° West 278 320 8,100 2,700 Climbing Boston Center
07:53PM 41.9000 -73.2353 270° West  Level FlightAware Approximate
07:53PM 41.8883 -73.0033 267° West 278 320 10,600  Level Boston Center
07:54PM 41.8688 -73.3624 236° Southwest  Level FlightAware Approximate
07:54PM 41.8689 -73.1175 257° West 326 375 12,400  Level Boston Center
07:55PM 41.8142 -73.4813 242° Southwest  Level FlightAware Approximate
07:55PM 41.8389 -73.2650 255° West 370 426 14,000  Level Boston Center
07:56PM 41.8042 -73.4372 255° West 397 457 16,800 2,220 Climbing Boston Center
07:57PM 41.7758 -73.5647 253° West 392 451 18,500 1,800 Climbing Boston Center
07:58PM 41.6831 -73.6742 221° Southwest 393 452 20,400 1,440 Climbing Boston Center
08:00PM 41.4886 -73.8258 210° Southwest 413 475 22,900 1,140 Climbing New York Center
08:01PM 41.3758 -73.9147 211° Southwest 450 518 23,900 900 Climbing New York Center
08:02PM 41.2611 -74.0031 210° Southwest 473 544 24,800 900 Climbing New York Center
08:03PM 41.1439 -74.0994 212° Southwest 491 565 25,700 1,020 Climbing New York Center
08:04PM 41.0600 -74.2603 235° Southwest 481 554 26,900 1,080 Climbing New York Center
08:05PM 40.9911 -74.4081 238° Southwest 481 554 27,900 480 Climbing New York Center
08:06PM 40.9219 -74.5525 238° Southwest 481 554 27,900  Level New York Center
08:07PM 40.8689 -74.7061 245° Southwest 465 535 28,000  Climbing New York Center
08:08PM 40.8219 -74.8597 248° West 459 528 28,000  Level New York Center
08:09PM 40.7728 -75.0156 247° West 464 534 28,000  Level New York Center
08:11PM 40.7256 -75.1714 248° West 464 534 28,000  Level New York Center
08:11PM 40.6575 -75.3119 237° Southwest 464 534 28,000 -180 Level New York Center
08:12PM 40.5836 -75.4467 234° Southwest 464 534 27,700 -1,260 Descending New York Center
08:13PM 40.5114 -75.5808 235° Southwest 464 534 25,500 -2,160 Descending New York Center
08:15PM 40.4414 -75.7125 235° Southwest 457 526 23,300 -2,100 Descending New York Center
08:15PM 40.3714 -75.8381 234° Southwest 445 512 21,400 -1,740 Descending New York Center
08:16PM 40.3017 -75.9583 233° Southwest 438 504 20,000 -720 Descending New York Center
08:17PM 40.2336 -76.0811 234° Southwest 426 490 20,000  Level New York Center
08:18PM 40.1764 -76.1933 236° Southwest 426 490 20,000  Level New York Center
08:19PM 40.1039 -76.3181 233° Southwest 430 495 20,000 -480 Level New York Center
08:21PM 39.9833 -76.5833 239° Southwest 421 484 18,600 -900 Descending Potomac TRACON
08:22PM 39.9333 -76.7000 241° Southwest 407 468 17,500 -1,320 Descending Potomac TRACON
08:23PM 39.8667 -76.8167 233° Southwest 393 452 16,100 -1,440 Descending Potomac TRACON
08:24PM 39.8167 -76.9500 244° Southwest 380 437 14,600 -1,620 Descending Potomac TRACON
08:25PM 39.7500 -77.0667 233° Southwest 376 433 12,700 -1,740 Descending Potomac TRACON
08:26PM 39.7000 -77.1833 241° Southwest 371 427 11,100 -1,320 Descending Potomac TRACON
08:27PM 39.6500 -77.2833 237° Southwest 338 389 10,100 -960 Descending Potomac TRACON
08:28PM 39.6000 -77.3500 226° Southwest 285 328 9,200 -1,140 Descending Potomac TRACON
08:29PM 39.5333 -77.4000 210° Southwest 276 318 7,900 -1,140 Descending Potomac TRACON
08:30PM 39.4667 -77.4500 210° Southwest 274 315 7,000 -1,020 Descending Potomac TRACON
08:31PM 39.3833 -77.4500 180° South 265 305 5,900 -1,140 Descending Potomac TRACON
08:32PM 39.3167 -77.4500 180° South 256 295 4,800 -960 Descending Potomac TRACON
08:34PM 39.2333 -77.4500 180° South 248 285 3,900 -840 Descending Potomac TRACON
08:34PM 39.1833 -77.4500 180° South 226 260 3,200 -660 Descending Potomac TRACON
08:35PM 39.1167 -77.4500 180° South 206 237 2,700 -540 Descending Potomac TRACON